createdAt,value
2022-09-25T00:00:30.443Z,20.52
2022-09-25T00:01:30.517Z,20.55
2022-09-25T00:02:30.626Z,20.52
2022-09-25T00:03:30.412Z,20.55
2022-09-25T00:04:30.376Z,20.55
2022-09-25T00:05:30.367Z,20.52
2022-09-25T00:06:30.424Z,20.52
2022-09-25T00:07:31.742Z,20.52
2022-09-25T00:08:30.332Z,20.55
2022-09-25T00:09:30.325Z,20.52
2022-09-25T00:10:30.312Z,20.55
2022-09-25T00:11:30.302Z,20.55
2022-09-25T00:12:30.291Z,20.52
2022-09-25T00:13:31.755Z,20.55
2022-09-25T00:14:30.267Z,20.52
2022-09-25T00:15:30.256Z,20.52
2022-09-25T00:16:30.359Z,20.52
2022-09-25T00:17:30.235Z,20.52
2022-09-25T00:18:30.226Z,20.52
2022-09-25T00:19:30.214Z,20.52
2022-09-25T00:20:30.206Z,20.55
2022-09-25T00:21:30.192Z,20.52
2022-09-25T00:22:30.413Z,20.52
2022-09-25T00:23:30.168Z,20.52
2022-09-25T00:24:30.158Z,20.52
2022-09-25T00:25:30.147Z,20.52
2022-09-25T00:26:30.140Z,20.52
2022-09-25T00:27:30.125Z,20.52
2022-09-25T00:28:30.147Z,20.52
2022-09-25T00:29:30.103Z,20.52
2022-09-25T00:30:30.288Z,20.52
2022-09-25T00:31:30.080Z,20.52
2022-09-25T00:32:30.098Z,20.55
2022-09-25T00:33:33.354Z,20.52
2022-09-25T00:34:30.049Z,20.52
2022-09-25T00:35:30.038Z,20.55
2022-09-25T00:36:30.056Z,20.52
2022-09-25T00:37:30.017Z,20.51
2022-09-25T00:38:30.007Z,20.55
2022-09-25T00:39:30.016Z,20.52
2022-09-25T00:40:30.064Z,20.52
2022-09-25T00:41:29.971Z,20.51
2022-09-25T00:42:29.962Z,20.52
2022-09-25T00:43:29.951Z,20.52
2022-09-25T00:44:29.964Z,20.52
2022-09-25T00:45:29.930Z,20.52
2022-09-25T00:46:29.962Z,20.52
2022-09-25T00:47:29.906Z,20.55
2022-09-25T00:48:29.918Z,20.52
2022-09-25T00:49:31.019Z,20.51
2022-09-25T00:50:29.875Z,20.52
2022-09-25T00:51:29.874Z,20.51
2022-09-25T00:52:29.854Z,20.52
2022-09-25T00:53:29.842Z,20.52
2022-09-25T00:54:29.831Z,20.52
2022-09-25T00:55:30.122Z,20.52
2022-09-25T00:56:29.810Z,20.51
2022-09-25T00:57:29.797Z,20.52
2022-09-25T00:58:29.794Z,20.52
2022-09-25T00:59:29.776Z,20.52
2022-09-25T01:00:31.942Z,20.51
2022-09-25T01:01:29.858Z,20.55
2022-09-25T01:02:29.778Z,20.55
2022-09-25T01:03:29.730Z,20.52
2022-09-25T01:04:29.744Z,20.52
2022-09-25T01:05:29.708Z,20.51
2022-09-25T01:06:29.912Z,20.51
2022-09-25T01:07:29.687Z,20.52
2022-09-25T01:08:29.688Z,20.51
2022-09-25T01:09:29.665Z,20.51
2022-09-25T01:10:29.658Z,20.51
2022-09-25T01:11:29.643Z,20.51
2022-09-25T01:12:30.754Z,20.51
2022-09-25T01:13:29.624Z,20.55
2022-09-25T01:14:29.610Z,20.51
2022-09-25T01:15:29.600Z,20.51
2022-09-25T01:16:29.624Z,20.51
2022-09-25T01:17:29.603Z,20.52
2022-09-25T01:18:29.568Z,20.51
2022-09-25T01:19:29.553Z,20.51
2022-09-25T01:20:29.570Z,20.51
2022-09-25T01:21:29.531Z,20.51
2022-09-25T01:22:30.334Z,20.52
2022-09-25T01:23:29.510Z,20.50
2022-09-25T01:24:29.499Z,20.51
2022-09-25T01:25:29.489Z,20.51
2022-09-25T01:26:29.475Z,20.51
2022-09-25T01:27:29.493Z,20.51
2022-09-25T01:28:29.456Z,20.51
2022-09-25T01:29:29.443Z,20.51
2022-09-25T01:30:29.453Z,20.52
2022-09-25T01:31:29.421Z,20.51
2022-09-25T01:32:29.434Z,20.52
2022-09-25T01:33:29.402Z,20.51
2022-09-25T01:34:29.389Z,20.52
2022-09-25T01:35:29.380Z,20.51
2022-09-25T01:36:31.075Z,20.51
2022-09-25T01:37:29.357Z,20.51
2022-09-25T01:38:29.378Z,20.51
2022-09-25T01:39:29.629Z,20.52
2022-09-25T01:40:29.386Z,20.51
2022-09-25T01:41:29.310Z,20.50
2022-09-25T01:42:29.303Z,20.51
2022-09-25T01:43:29.289Z,20.51
2022-09-25T01:44:29.335Z,20.52
2022-09-25T01:45:29.268Z,20.51
2022-09-25T01:46:29.335Z,20.51
2022-09-25T01:47:29.245Z,20.51
2022-09-25T01:48:29.237Z,20.51
2022-09-25T01:49:29.222Z,20.52
2022-09-25T01:50:32.381Z,20.50
2022-09-25T01:51:29.202Z,20.50
2022-09-25T01:52:29.216Z,20.51
2022-09-25T01:53:29.179Z,20.50
2022-09-25T01:54:29.175Z,20.52
2022-09-25T01:55:29.241Z,20.51
2022-09-25T01:56:29.147Z,20.50
2022-09-25T01:57:29.135Z,20.51
2022-09-25T01:58:29.131Z,20.50
2022-09-25T01:59:29.113Z,20.51
2022-09-25T02:00:31.538Z,20.51
2022-09-25T02:01:29.259Z,20.51
2022-09-25T02:02:32.442Z,20.51
2022-09-25T02:03:32.432Z,20.50
2022-09-25T02:04:29.061Z,20.51
2022-09-25T02:05:29.055Z,20.51
2022-09-25T02:06:29.399Z,20.51
2022-09-25T02:07:29.030Z,20.51
2022-09-25T02:08:29.042Z,20.50
2022-09-25T02:09:29.003Z,20.51
2022-09-25T02:10:28.994Z,20.50
2022-09-25T02:11:28.980Z,20.50
2022-09-25T02:12:33.446Z,20.51
2022-09-25T02:13:34.355Z,20.50
2022-09-25T02:14:28.947Z,20.50
2022-09-25T02:15:28.935Z,20.50
2022-09-25T02:16:29.043Z,20.50
2022-09-25T02:17:28.952Z,20.48
2022-09-25T02:18:28.904Z,20.51
2022-09-25T02:19:28.890Z,20.51
2022-09-25T02:20:28.881Z,20.50
2022-09-25T02:21:28.868Z,20.51
2022-09-25T02:22:28.860Z,20.50
2022-09-25T02:23:28.879Z,20.51
2022-09-25T02:24:28.898Z,20.50
2022-09-25T02:25:28.824Z,20.51
2022-09-25T02:26:28.815Z,20.50
2022-09-25T02:27:28.803Z,20.50
2022-09-25T02:28:28.792Z,20.51
2022-09-25T02:29:28.812Z,20.50
2022-09-25T02:30:28.870Z,20.50
2022-09-25T02:31:28.758Z,20.50
2022-09-25T02:32:28.751Z,20.50
2022-09-25T02:33:28.741Z,20.51
2022-09-25T02:34:28.726Z,20.51
2022-09-25T02:35:28.750Z,20.50
2022-09-25T02:36:28.702Z,20.50
2022-09-25T02:37:28.695Z,20.51
2022-09-25T02:38:28.682Z,20.50
2022-09-25T02:39:28.672Z,20.50
2022-09-25T02:40:28.771Z,20.50
2022-09-25T02:41:28.653Z,20.50
2022-09-25T02:42:28.638Z,20.50
2022-09-25T02:43:28.629Z,20.51
2022-09-25T02:44:28.618Z,20.50
2022-09-25T02:45:28.640Z,20.51
2022-09-25T02:46:28.641Z,20.50
2022-09-25T02:47:28.585Z,20.51
2022-09-25T02:48:28.603Z,20.50
2022-09-25T02:49:28.564Z,20.51
2022-09-25T02:50:28.550Z,20.50
2022-09-25T02:51:28.541Z,20.51
2022-09-25T02:52:28.539Z,20.50
2022-09-25T02:53:28.551Z,20.50
2022-09-25T02:54:28.537Z,20.51
2022-09-25T02:55:28.495Z,20.51
2022-09-25T02:56:28.508Z,20.51
2022-09-25T02:57:28.472Z,20.51
2022-09-25T02:58:28.461Z,20.48
2022-09-25T02:59:28.487Z,20.50
2022-09-25T03:00:28.438Z,20.50
2022-09-25T03:01:28.480Z,20.50
2022-09-25T03:02:28.453Z,20.50
2022-09-25T03:03:28.409Z,20.50
2022-09-25T03:04:28.394Z,20.50
2022-09-25T03:05:28.420Z,20.51
2022-09-25T03:06:28.371Z,20.50
2022-09-25T03:07:28.361Z,20.50
2022-09-25T03:08:28.350Z,20.50
2022-09-25T03:09:28.341Z,20.50
2022-09-25T03:10:28.360Z,20.50
2022-09-25T03:11:28.320Z,20.50
2022-09-25T03:12:28.365Z,20.50
2022-09-25T03:13:28.297Z,20.48
2022-09-25T03:14:28.286Z,20.50
2022-09-25T03:15:28.275Z,20.48
2022-09-25T03:16:28.345Z,20.51
2022-09-25T03:17:28.285Z,20.50
2022-09-25T03:18:28.245Z,20.48
2022-09-25T03:19:28.259Z,20.50
2022-09-25T03:20:28.217Z,20.50
2022-09-25T03:21:28.208Z,20.51
2022-09-25T03:22:28.196Z,20.51
2022-09-25T03:23:28.184Z,20.50
2022-09-25T03:24:28.221Z,20.50
2022-09-25T03:25:28.163Z,20.48
2022-09-25T03:26:28.151Z,20.50
2022-09-25T03:27:28.141Z,20.48
2022-09-25T03:28:28.152Z,20.50
2022-09-25T03:29:28.119Z,20.48
2022-09-25T03:30:28.139Z,20.48
2022-09-25T03:31:28.150Z,20.51
2022-09-25T03:32:28.087Z,20.50
2022-09-25T03:33:28.079Z,20.48
2022-09-25T03:34:28.096Z,20.48
2022-09-25T03:35:28.054Z,20.51
2022-09-25T03:36:28.042Z,20.50
2022-09-25T03:37:28.029Z,20.50
2022-09-25T03:38:28.019Z,20.50
2022-09-25T03:39:28.044Z,20.50
2022-09-25T03:40:28.064Z,20.50
2022-09-25T03:41:27.988Z,20.50
2022-09-25T03:42:27.976Z,20.48
2022-09-25T03:43:27.967Z,20.50
2022-09-25T03:44:28.010Z,20.51
2022-09-25T03:45:27.945Z,20.50
2022-09-25T03:46:28.051Z,20.48
2022-09-25T03:47:27.921Z,20.50
2022-09-25T03:48:27.910Z,20.48
2022-09-25T03:49:27.936Z,20.48
2022-09-25T03:50:27.886Z,20.48
2022-09-25T03:51:27.879Z,20.50
2022-09-25T03:52:27.867Z,20.48
2022-09-25T03:53:27.857Z,20.48
2022-09-25T03:54:27.876Z,20.48
2022-09-25T03:55:27.835Z,20.48
2022-09-25T03:56:27.822Z,20.48
2022-09-25T03:57:27.844Z,20.48
2022-09-25T03:58:27.799Z,20.48
2022-09-25T03:59:27.792Z,20.50
2022-09-25T04:00:27.899Z,20.48
2022-09-25T04:01:27.891Z,20.50
2022-09-25T04:02:27.917Z,20.48
2022-09-25T04:03:27.747Z,20.48
2022-09-25T04:04:27.766Z,20.50
2022-09-25T04:05:27.724Z,20.48
2022-09-25T04:06:27.712Z,20.47
2022-09-25T04:07:27.703Z,20.50
2022-09-25T04:08:27.690Z,20.48
2022-09-25T04:09:27.716Z,20.48
2022-09-25T04:10:27.668Z,20.50
2022-09-25T04:11:27.695Z,20.47
2022-09-25T04:12:27.645Z,20.48
2022-09-25T04:13:27.637Z,20.48
2022-09-25T04:14:27.633Z,20.48
2022-09-25T04:15:27.613Z,20.50
2022-09-25T04:16:27.730Z,20.47
2022-09-25T04:17:27.626Z,20.48
2022-09-25T04:18:27.611Z,20.48
2022-09-25T04:19:27.569Z,20.47
2022-09-25T04:20:27.557Z,20.48
2022-09-25T04:21:27.548Z,20.50
2022-09-25T04:22:27.537Z,20.47
2022-09-25T04:23:27.560Z,20.50
2022-09-25T04:24:27.514Z,20.48
2022-09-25T04:25:27.505Z,20.47
2022-09-25T04:26:27.531Z,20.50
2022-09-25T04:27:27.480Z,20.47
2022-09-25T04:28:27.469Z,20.47
2022-09-25T04:29:27.459Z,20.48
2022-09-25T04:30:27.449Z,20.48
2022-09-25T04:31:27.535Z,20.48
2022-09-25T04:32:27.481Z,20.48
2022-09-25T04:33:27.417Z,20.48
2022-09-25T04:34:27.404Z,20.48
2022-09-25T04:35:27.400Z,20.47
2022-09-25T04:36:27.420Z,20.48
2022-09-25T04:37:27.375Z,20.48
2022-09-25T04:38:27.360Z,20.50
2022-09-25T04:39:27.351Z,20.48
2022-09-25T04:40:27.424Z,20.48
2022-09-25T04:41:27.362Z,20.48
2022-09-25T04:42:27.321Z,20.48
2022-09-25T04:43:27.305Z,20.47
2022-09-25T04:44:27.331Z,20.50
2022-09-25T04:45:27.284Z,20.48
2022-09-25T04:46:27.345Z,20.47
2022-09-25T04:47:27.263Z,20.47
2022-09-25T04:48:27.278Z,20.48
2022-09-25T04:49:27.274Z,20.48
2022-09-25T04:50:27.228Z,20.47
2022-09-25T04:51:27.251Z,20.48
2022-09-25T04:52:27.206Z,20.48
2022-09-25T04:53:27.200Z,20.50
2022-09-25T04:54:27.188Z,20.47
2022-09-25T04:55:27.173Z,20.50
2022-09-25T04:56:27.194Z,20.48
2022-09-25T04:57:56.802Z,20.48
2022-09-25T04:58:28.138Z,20.48
2022-09-25T04:59:27.160Z,20.48
2022-09-25T05:00:27.120Z,20.47
2022-09-25T05:01:27.222Z,20.47
2022-09-25T05:02:27.288Z,20.48
2022-09-25T05:03:27.121Z,20.47
2022-09-25T05:04:27.131Z,20.47
2022-09-25T05:05:27.064Z,20.48
2022-09-25T05:06:27.053Z,20.48
2022-09-25T05:07:27.042Z,20.47
2022-09-25T05:08:27.032Z,20.48
2022-09-25T05:09:27.055Z,20.47
2022-09-25T05:10:27.007Z,20.48
2022-09-25T05:11:26.998Z,20.47
2022-09-25T05:12:26.985Z,20.47
2022-09-25T05:13:26.978Z,20.47
2022-09-25T05:14:26.997Z,20.47
2022-09-25T05:15:26.953Z,20.48
2022-09-25T05:16:27.048Z,20.48
2022-09-25T05:17:26.933Z,20.48
2022-09-25T05:18:26.918Z,20.48
2022-09-25T05:19:26.910Z,20.48
2022-09-25T05:20:26.920Z,20.48
2022-09-25T05:21:26.928Z,20.48
2022-09-25T05:22:26.874Z,20.47
2022-09-25T05:23:26.879Z,20.48
2022-09-25T05:24:26.852Z,20.47
2022-09-25T05:25:26.842Z,20.48
2022-09-25T05:26:26.830Z,20.48
2022-09-25T05:27:26.855Z,20.48
2022-09-25T05:28:26.808Z,20.47
2022-09-25T05:29:26.831Z,20.47
2022-09-25T05:30:26.786Z,20.47
2022-09-25T05:31:26.892Z,20.48
2022-09-25T05:32:26.766Z,20.48
2022-09-25T05:33:26.756Z,20.47
2022-09-25T05:34:26.777Z,20.44
2022-09-25T05:35:26.731Z,20.48
2022-09-25T05:36:26.749Z,20.48
2022-09-25T05:37:26.708Z,20.47
2022-09-25T05:38:26.697Z,20.47
2022-09-25T05:39:26.719Z,20.44
2022-09-25T05:40:26.731Z,20.48
2022-09-25T05:41:26.664Z,20.48
2022-09-25T05:42:26.653Z,20.44
2022-09-25T05:43:26.644Z,20.47
2022-09-25T05:44:26.664Z,20.47
2022-09-25T05:45:26.623Z,20.48
2022-09-25T05:46:26.668Z,20.48
2022-09-25T05:47:26.597Z,20.48
2022-09-25T05:48:26.585Z,20.44
2022-09-25T05:49:26.578Z,20.47
2022-09-25T05:50:26.564Z,20.47
2022-09-25T05:51:26.588Z,20.44
2022-09-25T05:52:26.570Z,20.47
2022-09-25T05:53:26.534Z,20.47
2022-09-25T05:54:26.521Z,20.48
2022-09-25T05:55:26.511Z,20.48
2022-09-25T05:56:26.532Z,20.44
2022-09-25T05:57:26.489Z,20.48
2022-09-25T05:58:26.475Z,20.48
2022-09-25T05:59:26.498Z,20.48
2022-09-25T06:00:26.453Z,20.47
2022-09-25T06:01:26.519Z,20.47
2022-09-25T06:02:26.473Z,20.47
2022-09-25T06:03:26.421Z,20.47
2022-09-25T06:04:26.441Z,20.48
2022-09-25T06:05:26.400Z,20.47
2022-09-25T06:06:27.586Z,20.47
2022-09-25T06:07:26.377Z,20.47
2022-09-25T06:08:26.388Z,20.48
2022-09-25T06:09:26.386Z,20.48
2022-09-25T06:10:26.345Z,20.47
2022-09-25T06:11:26.366Z,20.50
2022-09-25T06:12:26.327Z,20.47
2022-09-25T06:13:26.312Z,20.47
2022-09-25T06:14:26.302Z,20.47
2022-09-25T06:15:26.289Z,20.47
2022-09-25T06:16:26.335Z,20.48
2022-09-25T06:17:26.267Z,20.44
2022-09-25T06:18:26.287Z,20.47
2022-09-25T06:19:26.245Z,20.48
2022-09-25T06:20:26.234Z,20.47
2022-09-25T06:21:26.222Z,20.47
2022-09-25T06:22:26.211Z,20.47
2022-09-25T06:23:26.200Z,20.47
2022-09-25T06:24:26.330Z,20.44
2022-09-25T06:25:26.177Z,20.47
2022-09-25T06:26:26.206Z,20.47
2022-09-25T06:27:26.156Z,20.47
2022-09-25T06:28:26.149Z,20.47
2022-09-25T06:29:26.136Z,20.48
2022-09-25T06:30:26.125Z,20.44
2022-09-25T06:31:26.206Z,20.47
2022-09-25T06:32:26.105Z,20.47
2022-09-25T06:33:26.121Z,20.48
2022-09-25T06:34:26.081Z,20.47
2022-09-25T06:35:26.067Z,20.47
2022-09-25T06:36:27.377Z,20.48
2022-09-25T06:37:26.046Z,20.47
2022-09-25T06:38:26.069Z,20.48
2022-09-25T06:39:26.024Z,20.48
2022-09-25T06:40:26.150Z,20.48
2022-09-25T06:41:26.003Z,20.48
2022-09-25T06:42:25.990Z,20.47
2022-09-25T06:43:26.019Z,20.48
2022-09-25T06:44:25.977Z,20.47
2022-09-25T06:45:25.969Z,20.47
2022-09-25T06:46:26.034Z,20.48
2022-09-25T06:47:27.019Z,20.44
2022-09-25T06:48:25.925Z,20.47
2022-09-25T06:49:25.947Z,20.48
2022-09-25T06:50:25.994Z,20.47
2022-09-25T06:51:25.926Z,20.47
2022-09-25T06:52:25.883Z,20.48
2022-09-25T06:53:25.876Z,20.44
2022-09-25T06:54:25.862Z,20.48
2022-09-25T06:55:25.850Z,20.48
2022-09-25T06:56:25.894Z,20.47
2022-09-25T06:57:25.833Z,20.47
2022-09-25T06:58:25.830Z,20.48
2022-09-25T06:59:25.806Z,20.48
2022-09-25T07:00:25.874Z,20.47
2022-09-25T07:01:25.841Z,20.48
2022-09-25T07:02:25.966Z,20.48
2022-09-25T07:03:25.769Z,20.47
2022-09-25T07:04:25.751Z,20.47
2022-09-25T07:05:25.745Z,20.47
2022-09-25T07:06:25.730Z,20.47
2022-09-25T07:07:25.752Z,20.47
2022-09-25T07:08:25.707Z,20.47
2022-09-25T07:09:25.732Z,20.48
2022-09-25T07:10:25.686Z,20.48
2022-09-25T07:11:25.683Z,20.48
2022-09-25T07:12:25.697Z,20.48
2022-09-25T07:13:25.654Z,20.48
2022-09-25T07:14:25.676Z,20.47
2022-09-25T07:15:25.636Z,20.48
2022-09-25T07:16:25.718Z,20.47
2022-09-25T07:17:25.613Z,20.47
2022-09-25T07:18:25.604Z,20.47
2022-09-25T07:19:27.749Z,20.48
2022-09-25T07:20:25.580Z,20.48
2022-09-25T07:21:25.601Z,20.48
2022-09-25T07:22:25.557Z,20.48
2022-09-25T07:23:25.548Z,20.47
2022-09-25T07:24:25.533Z,20.47
2022-09-25T07:25:25.528Z,20.48
2022-09-25T07:26:25.545Z,20.48
2022-09-25T07:27:25.506Z,20.48
2022-09-25T07:28:25.517Z,20.48
2022-09-25T07:29:25.483Z,20.47
2022-09-25T07:30:25.471Z,20.48
2022-09-25T07:31:25.554Z,20.47
2022-09-25T07:32:25.449Z,20.48
2022-09-25T07:33:25.439Z,20.48
2022-09-25T07:34:25.428Z,20.47
2022-09-25T07:35:25.419Z,20.47
2022-09-25T07:36:25.455Z,20.47
2022-09-25T07:37:25.398Z,20.48
2022-09-25T07:38:25.386Z,20.47
2022-09-25T07:39:25.376Z,20.47
2022-09-25T07:40:25.436Z,20.47
2022-09-25T07:41:25.358Z,20.50
2022-09-25T07:42:25.374Z,20.47
2022-09-25T07:43:25.333Z,20.47
2022-09-25T07:44:28.971Z,20.48
2022-09-25T07:45:26.308Z,20.47
2022-09-25T07:46:25.374Z,20.44
2022-09-25T07:47:25.290Z,20.44
2022-09-25T07:48:25.275Z,20.48
2022-09-25T07:49:25.301Z,20.47
2022-09-25T07:50:25.252Z,20.47
2022-09-25T07:51:25.244Z,20.47
2022-09-25T07:52:25.230Z,20.47
2022-09-25T07:53:25.220Z,20.47
2022-09-25T07:54:25.241Z,20.47
2022-09-25T07:55:25.199Z,20.47
2022-09-25T07:56:25.188Z,20.44
2022-09-25T07:57:25.178Z,20.48
2022-09-25T07:58:25.168Z,20.48
2022-09-25T07:59:25.196Z,20.48
2022-09-25T08:00:25.164Z,20.47
2022-09-25T08:01:25.224Z,20.47
2022-09-25T08:02:25.296Z,20.47
2022-09-25T08:03:25.111Z,20.47
2022-09-25T08:04:25.101Z,20.44
2022-09-25T08:05:25.124Z,20.44
2022-09-25T08:06:25.078Z,20.47
2022-09-25T08:07:25.098Z,20.47
2022-09-25T08:08:25.055Z,20.48
2022-09-25T08:09:25.047Z,20.47
2022-09-25T08:10:25.036Z,20.44
2022-09-25T08:11:25.026Z,20.48
2022-09-25T08:12:25.053Z,20.47
2022-09-25T08:13:25.000Z,20.47
2022-09-25T08:14:26.951Z,20.48
2022-09-25T08:15:24.983Z,20.47
2022-09-25T08:16:25.038Z,20.47
2022-09-25T08:17:24.991Z,20.47
2022-09-25T08:18:24.980Z,20.47
2022-09-25T08:19:24.969Z,20.47
2022-09-25T08:20:24.940Z,20.47
2022-09-25T08:21:24.915Z,20.47
2022-09-25T08:22:24.908Z,20.47
2022-09-25T08:23:24.891Z,20.47
2022-09-25T08:24:24.912Z,20.44
2022-09-25T08:25:24.868Z,20.47
2022-09-25T08:26:24.855Z,20.48
2022-09-25T08:27:24.846Z,20.48
2022-09-25T08:28:24.836Z,20.48
2022-09-25T08:29:24.862Z,20.47
2022-09-25T08:30:24.812Z,20.44
2022-09-25T08:31:24.938Z,20.47
2022-09-25T08:32:24.812Z,20.47
2022-09-25T08:33:24.781Z,20.47
2022-09-25T08:34:41.734Z,20.44
2022-09-25T08:35:25.758Z,20.44
2022-09-25T08:36:24.777Z,20.47
2022-09-25T08:37:24.735Z,20.44
2022-09-25T08:38:24.726Z,20.44
2022-09-25T08:39:24.717Z,20.44
2022-09-25T08:40:24.753Z,20.43
2022-09-25T08:41:24.731Z,20.47
2022-09-25T08:42:24.679Z,20.44
2022-09-25T08:43:24.674Z,20.47
2022-09-25T08:44:24.655Z,20.47
2022-09-25T08:45:24.655Z,20.48
2022-09-25T08:46:24.746Z,20.47
2022-09-25T08:47:24.660Z,20.47
2022-09-25T08:48:24.636Z,20.48
2022-09-25T08:49:24.602Z,20.47
2022-09-25T08:50:24.622Z,20.47
2022-09-25T08:51:24.580Z,20.48
2022-09-25T08:52:24.576Z,20.47
2022-09-25T08:53:24.618Z,20.48
2022-09-25T08:54:24.546Z,20.47
2022-09-25T08:55:24.569Z,20.50
2022-09-25T08:56:24.524Z,20.47
2022-09-25T08:57:24.515Z,20.48
2022-09-25T08:58:24.508Z,20.50
2022-09-25T08:59:24.491Z,20.50
2022-09-25T09:00:24.516Z,20.48
2022-09-25T09:01:24.595Z,20.50
2022-09-25T09:02:24.501Z,20.48
2022-09-25T09:03:24.447Z,20.48
2022-09-25T09:04:24.462Z,20.50
2022-09-25T09:05:24.425Z,20.50
2022-09-25T09:06:24.445Z,20.50
2022-09-25T09:07:27.194Z,20.51
2022-09-25T09:08:24.391Z,20.50
2022-09-25T09:09:24.383Z,20.51
2022-09-25T09:10:24.368Z,20.51
2022-09-25T09:11:24.393Z,20.51
2022-09-25T09:12:24.354Z,20.52
2022-09-25T09:13:24.336Z,20.51
2022-09-25T09:14:24.355Z,20.52
2022-09-25T09:15:24.344Z,20.51
2022-09-25T09:16:24.302Z,20.52
2022-09-25T09:17:24.294Z,20.51
2022-09-25T09:18:24.281Z,20.52
2022-09-25T09:19:24.304Z,20.52
2022-09-25T09:20:24.283Z,20.55
2022-09-25T09:21:24.249Z,20.55
2022-09-25T09:22:24.237Z,20.52
2022-09-25T09:23:24.226Z,20.55
2022-09-25T09:24:24.256Z,20.52
2022-09-25T09:25:24.207Z,20.52
2022-09-25T09:26:24.192Z,20.55
2022-09-25T09:27:24.183Z,20.55
2022-09-25T09:28:24.171Z,20.52
2022-09-25T09:29:24.160Z,20.55
2022-09-25T09:30:24.194Z,20.55
2022-09-25T09:31:24.136Z,20.55
2022-09-25T09:32:24.124Z,20.55
2022-09-25T09:33:24.114Z,20.55
2022-09-25T09:34:36.199Z,20.55
2022-09-25T09:35:28.655Z,20.55
2022-09-25T09:36:25.136Z,20.56
2022-09-25T09:37:24.071Z,20.55
2022-09-25T09:38:24.059Z,20.56
2022-09-25T09:39:24.048Z,20.56
2022-09-25T09:40:24.116Z,20.56
2022-09-25T09:41:24.065Z,20.56
2022-09-25T09:42:24.052Z,20.56
2022-09-25T09:43:24.005Z,20.56
2022-09-25T09:44:23.994Z,20.56
2022-09-25T09:45:23.982Z,20.56
2022-09-25T09:46:24.014Z,20.55
2022-09-25T09:47:24.003Z,20.55
2022-09-25T09:48:23.948Z,20.56
2022-09-25T09:49:23.938Z,20.55
2022-09-25T09:50:23.926Z,20.55
2022-09-25T09:51:23.915Z,20.56
2022-09-25T09:52:23.930Z,20.56
2022-09-25T09:53:23.936Z,20.58
2022-09-25T09:54:23.883Z,20.56
2022-09-25T09:55:23.876Z,20.58
2022-09-25T09:56:23.865Z,20.56
2022-09-25T09:57:23.856Z,20.56
2022-09-25T09:58:23.839Z,20.55
2022-09-25T09:59:23.864Z,20.55
2022-09-25T10:00:23.818Z,20.56
2022-09-25T10:02:24.889Z,20.56
2022-09-25T10:03:23.986Z,20.56
2022-09-25T10:04:23.812Z,20.55
2022-09-25T10:05:23.765Z,20.58
2022-09-25T10:06:23.753Z,20.58
2022-09-25T10:07:23.755Z,20.56
2022-09-25T10:08:23.841Z,20.56
2022-09-25T10:09:23.719Z,20.56
2022-09-25T10:10:23.752Z,20.58
2022-09-25T10:11:23.699Z,20.58
2022-09-25T10:12:23.685Z,20.56
2022-09-25T10:13:23.675Z,20.58
2022-09-25T10:14:23.664Z,20.56
2022-09-25T10:15:23.688Z,20.58
2022-09-25T10:16:23.643Z,20.58
2022-09-25T10:17:23.637Z,20.59
2022-09-25T10:18:23.625Z,20.58
2022-09-25T10:19:23.615Z,20.59
2022-09-25T10:20:23.633Z,20.58
2022-09-25T10:21:23.588Z,20.58
2022-09-25T10:22:23.581Z,20.58
2022-09-25T10:23:23.569Z,20.58
2022-09-25T10:24:23.580Z,20.59
2022-09-25T10:25:23.590Z,20.59
2022-09-25T10:26:23.543Z,20.58
2022-09-25T10:27:23.526Z,20.59
2022-09-25T10:28:23.522Z,20.60
2022-09-25T10:29:23.505Z,20.59
2022-09-25T10:30:23.496Z,20.59
2022-09-25T10:31:23.546Z,20.59
2022-09-25T10:32:23.474Z,20.59
2022-09-25T10:33:23.459Z,20.60
2022-09-25T10:34:23.450Z,20.59
2022-09-25T10:35:23.439Z,20.59
2022-09-25T10:36:23.466Z,20.59
2022-09-25T10:37:23.414Z,20.59
2022-09-25T10:38:23.404Z,20.60
2022-09-25T10:39:42.783Z,20.60
2022-09-25T10:40:24.478Z,20.62
2022-09-25T10:41:23.373Z,20.60
2022-09-25T10:42:23.393Z,20.59
2022-09-25T10:43:23.354Z,20.60
2022-09-25T10:44:23.371Z,20.59
2022-09-25T10:45:23.338Z,20.60
2022-09-25T10:46:23.378Z,20.59
2022-09-25T10:47:23.307Z,20.59
2022-09-25T10:48:23.294Z,20.60
2022-09-25T10:49:23.332Z,20.60
2022-09-25T10:50:23.272Z,20.62
2022-09-25T10:51:23.267Z,20.62
2022-09-25T10:52:23.253Z,20.62
2022-09-25T10:53:23.242Z,20.60
2022-09-25T10:54:23.229Z,20.60
2022-09-25T10:55:23.253Z,20.60
2022-09-25T10:56:23.232Z,20.62
2022-09-25T10:57:23.198Z,20.63
2022-09-25T10:58:23.186Z,20.62
2022-09-25T10:59:23.436Z,20.62
2022-09-25T11:00:23.202Z,20.60
2022-09-25T11:01:23.211Z,20.60
2022-09-25T11:02:23.324Z,20.63
2022-09-25T11:03:23.165Z,20.62
2022-09-25T11:04:23.121Z,20.62
2022-09-25T11:05:23.111Z,20.63
2022-09-25T11:06:23.100Z,20.62
2022-09-25T11:07:23.087Z,20.62
2022-09-25T11:08:23.113Z,20.62
2022-09-25T11:09:23.075Z,20.63
2022-09-25T11:10:23.057Z,20.62
2022-09-25T11:11:23.044Z,20.62
2022-09-25T11:12:23.060Z,20.62
2022-09-25T11:13:23.055Z,20.62
2022-09-25T11:14:23.017Z,20.62
2022-09-25T11:15:23.004Z,20.62
2022-09-25T11:16:23.031Z,20.63
2022-09-25T11:17:23.002Z,20.63
2022-09-25T11:18:23.011Z,20.63
2022-09-25T11:19:22.990Z,20.63
2022-09-25T11:20:22.951Z,20.63
2022-09-25T11:21:22.936Z,20.63
2022-09-25T11:22:22.926Z,20.63
2022-09-25T11:23:22.914Z,20.63
2022-09-25T11:24:22.938Z,20.63
2022-09-25T11:25:22.895Z,20.62
2022-09-25T11:26:22.884Z,20.63
2022-09-25T11:27:22.871Z,20.62
2022-09-25T11:28:22.884Z,20.62
2022-09-25T11:29:22.882Z,20.62
2022-09-25T11:30:22.845Z,20.62
2022-09-25T11:31:22.862Z,20.63
2022-09-25T11:32:22.818Z,20.62
2022-09-25T11:33:22.838Z,20.62
2022-09-25T11:34:22.794Z,20.63
2022-09-25T11:35:22.781Z,20.60
2022-09-25T11:36:22.773Z,20.62
2022-09-25T11:37:22.761Z,20.60
2022-09-25T11:38:22.793Z,20.60
2022-09-25T11:39:22.739Z,20.60
2022-09-25T11:40:22.815Z,20.60
2022-09-25T11:41:22.719Z,20.60
2022-09-25T11:42:22.709Z,20.60
2022-09-25T11:43:22.697Z,20.62
2022-09-25T11:44:22.748Z,20.60
2022-09-25T11:45:22.676Z,20.60
2022-09-25T11:46:22.713Z,20.62
2022-09-25T11:47:22.655Z,20.60
2022-09-25T11:48:22.642Z,20.60
2022-09-25T11:49:22.663Z,20.60
2022-09-25T11:50:22.662Z,20.60
2022-09-25T11:51:22.607Z,20.60
2022-09-25T11:52:22.597Z,20.60
2022-09-25T11:53:22.585Z,20.62
2022-09-25T11:54:33.610Z,20.62
2022-09-25T11:55:23.596Z,20.60
2022-09-25T11:56:22.585Z,20.62
2022-09-25T11:57:22.542Z,20.62
2022-09-25T11:58:22.531Z,20.62
2022-09-25T11:59:22.523Z,20.62
2022-09-25T12:00:22.619Z,20.60
2022-09-25T12:01:22.634Z,20.60
2022-09-25T12:02:22.604Z,20.62
2022-09-25T12:03:22.478Z,20.62
2022-09-25T12:04:22.472Z,20.62
2022-09-25T12:05:22.471Z,20.60
2022-09-25T12:06:22.457Z,20.62
2022-09-25T12:07:22.475Z,20.62
2022-09-25T12:08:22.459Z,20.60
2022-09-25T12:09:22.412Z,20.62
2022-09-25T12:10:22.406Z,20.63
2022-09-25T12:11:22.392Z,20.62
2022-09-25T12:12:22.379Z,20.62
2022-09-25T12:13:22.408Z,20.62
2022-09-25T12:14:22.356Z,20.63
2022-09-25T12:15:22.351Z,20.62
2022-09-25T12:16:22.412Z,20.62
2022-09-25T12:17:22.328Z,20.63
2022-09-25T12:18:22.315Z,20.62
2022-09-25T12:19:22.343Z,20.62
2022-09-25T12:20:22.292Z,20.63
2022-09-25T12:21:22.282Z,20.62
2022-09-25T12:22:22.272Z,20.60
2022-09-25T12:23:22.260Z,20.62
2022-09-25T12:24:22.247Z,20.63
2022-09-25T12:25:22.269Z,20.63
2022-09-25T12:26:22.226Z,20.62
2022-09-25T12:27:22.219Z,20.63
2022-09-25T12:28:22.204Z,20.60
2022-09-25T12:29:22.194Z,20.63
2022-09-25T12:30:22.379Z,20.60
2022-09-25T12:31:22.251Z,20.62
2022-09-25T12:32:22.267Z,20.62
2022-09-25T12:33:22.152Z,20.63
2022-09-25T12:34:22.138Z,20.62
2022-09-25T12:35:22.170Z,20.62
2022-09-25T12:36:22.155Z,20.62
2022-09-25T12:37:26.693Z,20.63
2022-09-25T12:38:23.093Z,20.62
2022-09-25T12:39:22.083Z,20.63
2022-09-25T12:40:22.251Z,20.63
2022-09-25T12:41:22.063Z,20.62
2022-09-25T12:42:22.092Z,20.63
2022-09-25T12:43:22.042Z,20.63
2022-09-25T12:44:27.125Z,20.63
2022-09-25T12:45:23.018Z,20.65
2022-09-25T12:46:22.085Z,20.63
2022-09-25T12:47:22.030Z,20.65
2022-09-25T12:48:22.007Z,20.65
2022-09-25T12:49:21.978Z,20.63
2022-09-25T12:50:21.991Z,20.65
2022-09-25T12:51:21.956Z,20.65
2022-09-25T12:52:21.979Z,20.66
2022-09-25T12:53:21.963Z,20.65